Time;durP1;ratioP1;P1;durP2;ratioP2;P2;SDS_P1;SDS_P2;PMS_P1;PMS_P2;Temp;Humidity;BMP_temperature;BMP_pressure;BME280_temperature;BME280_humidity;BME280_pressure;Samples;Min_cycle;Max_cycle;Signal;HPM_P1;HPM_P2
2022/11/03 00:01:39;;;;;;;92.53;40.58;;;333.00;2329.60;;;;;;5073725;28;20016;-78
2022/11/03 00:04:06;;;;;;;98.35;42.70;;;332.90;2329.60;;;;;;5073696;28;20028;-79
2022/11/03 00:06:32;;;;;;;103.13;42.72;;;332.90;2329.60;;;;;;5073717;28;20154;-79
2022/11/03 00:09:00;;;;;;;101.38;41.65;;;332.80;2329.60;;;;;;5073898;28;20016;-78
2022/11/03 00:11:26;;;;;;;99.78;44.10;;;332.80;2329.60;;;;;;5073849;28;20486;-79
2022/11/03 00:13:52;;;;;;;92.20;41.90;;;332.90;2329.60;;;;;;5073779;28;20032;-79
2022/11/03 00:16:18;;;;;;;94.22;44.13;;;332.90;2329.60;;;;;;5073523;28;20090;-78
2022/11/03 00:18:44;;;;;;;102.60;45.92;;;332.80;2329.60;;;;;;5073671;28;20469;-79
2022/11/03 00:21:12;;;;;;;103.88;45.35;;;332.90;2329.60;;;;;;5073342;28;20020;-79
2022/11/03 00:23:42;;;;;;;98.65;43.97;;;333.00;2329.60;;;;;;5072990;28;20048;-77
2022/11/03 00:26:10;;;;;;;103.20;46.10;;;333.00;2329.60;;;;;;5073363;28;20496;-78
2022/11/03 00:28:36;;;;;;;93.95;46.15;;;333.20;2329.60;;;;;;5073722;28;20077;-78
2022/11/03 00:31:09;;;;;;;95.32;45.42;;;333.10;2329.60;;;;;;5073613;28;20024;-79
2022/11/03 00:33:36;;;;;;;103.03;48.13;;;333.10;2329.60;;;;;;5073280;28;20083;-80
2022/11/03 00:36:02;;;;;;;99.28;44.08;;;333.10;2329.60;;;;;;5073397;28;20497;-80
2022/11/03 00:38:29;;;;;;;100.22;44.83;;;333.10;2329.60;;;;;;5073305;28;20024;-78
2022/11/03 00:41:00;;;;;;;94.78;43.67;;;333.20;2329.60;;;;;;5073338;28;20487;-79
2022/11/03 00:43:28;;;;;;;106.32;47.95;;;333.20;2329.60;;;;;;5062540;28;20478;-79
2022/11/03 00:45:55;;;;;;;97.38;45.70;;;333.20;2329.60;;;;;;5073084;28;20077;-79
2022/11/03 00:48:31;;;;;;;105.20;48.10;;;333.20;2329.60;;;;;;5091294;28;20028;-77
2022/11/03 00:51:09;;;;;;;99.85;48.90;;;333.20;2329.60;;;;;;5090927;28;20027;-80
2022/11/03 00:53:37;;;;;;;102.60;45.28;;;333.30;2329.60;;;;;;5073639;28;20044;-78
2022/11/03 00:56:04;;;;;;;99.80;49.00;;;333.30;2329.60;;;;;;5072923;28;20024;-79
2022/11/03 00:58:30;;;;;;;95.28;42.35;;;333.30;2329.60;;;;;;5073282;28;20021;-78
2022/11/03 01:01:12;;;;;;;103.10;46.60;;;333.40;2329.60;;;;;;5073252;28;20066;-79
2022/11/03 01:03:40;;;;;;;96.00;44.70;;;333.40;2329.60;;;;;;5078949;28;20074;-79
2022/11/03 01:08:57;;;;;;;98.72;43.65;;;333.40;2201.60;;;;;;5092905;28;20080;-79
2022/11/03 01:14:10;;;;;;;102.10;47.67;;;333.20;2329.60;;;;;;5094937;28;20043;-80
2022/11/03 01:16:36;;;;;;;104.00;50.63;;;333.10;2329.60;;;;;;5076651;28;20081;-79
2022/11/03 01:19:02;;;;;;;102.00;48.72;;;333.20;2329.60;;;;;;5076448;28;20035;-78
2022/11/03 01:21:28;;;;;;;104.45;48.15;;;333.20;2329.60;;;;;;5094811;28;20016;-79
2022/11/03 01:23:54;;;;;;;110.25;52.30;;;333.10;2329.60;;;;;;5076473;28;20020;-79
2022/11/03 01:26:20;;;;;;;106.40;49.22;;;333.00;2329.60;;;;;;5076630;28;20073;-78
2022/11/03 01:28:47;;;;;;;106.82;51.67;;;333.00;2329.60;;;;;;5076334;28;20500;-79
2022/11/03 01:31:18;;;;;;;98.90;47.63;;;332.80;2329.60;;;;;;5075869;28;20485;-78
2022/11/03 01:33:44;;;;;;;110.43;49.50;;;333.00;2329.60;;;;;;5094224;28;20040;-77
2022/11/03 01:36:11;;;;;;;105.55;49.72;;;333.00;2329.60;;;;;;5076175;28;20099;-78
2022/11/03 01:38:37;;;;;;;110.13;48.70;;;333.20;2329.60;;;;;;5094234;28;20096;-79
2022/11/03 01:41:06;;;;;;;93.80;48.22;;;333.10;2329.60;;;;;;5076002;28;20075;-77
2022/11/03 01:43:32;;;;;;;111.93;50.40;;;333.10;2329.60;;;;;;5075741;28;20497;-78
2022/11/03 01:46:09;;;;;;;104.35;48.97;;;333.10;2329.60;;;;;;5075988;28;20027;-80
2022/11/03 01:48:41;;;;;;;113.15;51.78;;;333.20;2329.60;;;;;;5076109;28;20114;-77
2022/11/03 01:51:10;;;;;;;114.47;49.75;;;333.20;2329.60;;;;;;5075418;28;20767;-80
2022/11/03 01:53:41;;;;;;;110.20;50.17;;;333.20;2329.60;;;;;;5075792;28;20139;-78
2022/11/03 01:56:08;;;;;;;99.90;48.55;;;333.30;2329.60;;;;;;5075408;28;20501;-78
2022/11/03 01:58:37;;;;;;;108.57;48.97;;;333.30;2329.60;;;;;;5075879;28;20028;-78
2022/11/03 02:01:03;;;;;;;111.20;50.40;;;333.30;2329.60;;;;;;5075550;28;20028;-78
2022/11/03 02:03:33;;;;;;;108.38;51.17;;;333.20;2329.60;;;;;;5075821;28;20016;-79
2022/11/03 02:06:01;;;;;;;108.95;50.35;;;333.20;2329.60;;;;;;5093701;28;20113;-79
2022/11/03 02:08:39;;;;;;;107.97;48.08;;;333.10;2329.60;;;;;;5075390;28;20028;-78
2022/11/03 02:12:05;;;;;;;117.20;50.42;;;333.20;2329.60;;;;;;5075386;28;20024;-77
2022/11/03 02:13:51;;;;;;;105.38;48.78;;;333.20;2329.60;;;;;;5090390;28;20393;-78
2022/11/03 02:16:19;;;;;;;115.82;49.75;;;333.30;2329.60;;;;;;5073613;28;20020;-78
2022/11/03 02:18:46;;;;;;;114.32;50.88;;;333.20;2329.60;;;;;;5074939;28;20028;-79
2022/11/03 02:21:41;;;;;;;111.18;52.78;;;333.20;2329.60;;;;;;5074589;28;20401;-78
2022/11/03 02:24:22;;;;;;;107.13;48.60;;;333.20;2329.60;;;;;;5062565;28;20028;-79
2022/11/03 02:26:54;;;;;;;104.63;48.90;;;333.20;2329.60;;;;;;5071246;28;20103;-78
2022/11/03 02:29:20;;;;;;;117.68;51.03;;;333.20;2329.60;;;;;;5075489;28;20012;-80
2022/11/03 02:31:50;;;;;;;108.30;50.03;;;333.20;2329.60;;;;;;5075228;28;20238;-78
2022/11/03 02:34:22;;;;;;;114.30;51.97;;;333.20;2329.60;;;;;;5091042;28;20104;-80
2022/11/03 02:37:23;;;;;;;108.22;50.17;;;333.20;2329.60;;;;;;5074314;28;20028;-79
2022/11/03 02:40:05;;;;;;;112.22;50.42;;;333.20;2329.60;;;;;;5014190;28;20498;-79
2022/11/03 02:42:31;;;;;;;117.70;52.17;;;333.20;2329.60;;;;;;5029824;28;20526;-78
2022/11/03 02:45:01;;;;;;;112.03;48.95;;;333.30;2329.60;;;;;;5011422;28;20045;-80
2022/11/03 02:47:29;;;;;;;118.72;50.50;;;333.20;2329.60;;;;;;5020260;28;20028;-79
2022/11/03 02:49:55;;;;;;;104.45;50.60;;;333.20;2329.60;;;;;;5019658;28;20029;-78
2022/11/03 02:52:34;;;;;;;111.45;50.78;;;333.20;2329.60;;;;;;5017536;28;20076;-78
2022/11/03 02:55:08;;;;;;;115.88;52.75;;;333.20;2329.60;;;;;;5030906;28;20069;-78
2022/11/03 02:57:37;;;;;;;113.55;50.03;;;333.20;2329.60;;;;;;5030820;28;20029;-80
2022/11/03 03:00:05;;;;;;;109.18;50.15;;;333.20;2329.60;;;;;;5017873;28;20018;-78
2022/11/03 03:02:49;;;;;;;106.10;49.15;;;333.30;2329.60;;;;;;5022194;28;20036;-79
2022/11/03 03:05:18;;;;;;;110.65;49.20;;;333.30;2329.60;;;;;;5030308;28;20425;-79
2022/11/03 03:07:47;;;;;;;102.00;48.97;;;333.30;2329.60;;;;;;5017588;28;20021;-78
2022/11/03 03:10:21;;;;;;;98.97;49.90;;;333.30;2329.60;;;;;;5022076;28;20394;-77
2022/11/03 03:12:51;;;;;;;101.07;49.17;;;333.30;2329.60;;;;;;5013450;28;20509;-79
2022/11/03 03:15:19;;;;;;;114.07;51.40;;;333.30;2329.60;;;;;;5043928;28;20028;-80
2022/11/03 03:18:14;;;;;;;114.13;50.17;;;333.30;2329.60;;;;;;5074029;28;20413;-79
2022/11/03 03:21:02;;;;;;;110.05;49.35;;;333.30;2329.60;;;;;;4993610;28;20140;-78
2022/11/03 03:23:35;;;;;;;99.40;46.25;;;333.20;2329.60;;;;;;5009200;28;20034;-78
2022/11/03 03:26:08;;;;;;;106.50;49.63;;;333.20;2329.60;;;;;;5000241;28;20080;-78
2022/11/03 03:28:33;;;;;;;114.38;51.80;;;333.30;2329.60;;;;;;5009714;28;20026;-78
2022/11/03 03:31:04;;;;;;;105.85;50.03;;;333.30;2329.60;;;;;;5009566;28;20092;-78
2022/11/03 03:33:31;;;;;;;111.13;47.97;;;333.40;2329.60;;;;;;5009815;28;20100;-77
2022/11/03 03:36:02;;;;;;;110.53;51.05;;;333.30;2329.60;;;;;;5007141;28;20022;-77
2022/11/03 03:38:32;;;;;;;113.65;51.65;;;333.20;2329.60;;;;;;4993852;28;20030;-77
2022/11/03 03:41:01;;;;;;;111.38;50.97;;;333.20;2329.60;;;;;;4999188;28;20041;-78
2022/11/03 03:43:29;;;;;;;115.82;50.38;;;333.20;2329.60;;;;;;4993556;28;20076;-78
2022/11/03 03:46:00;;;;;;;123.53;52.97;;;333.20;2329.60;;;;;;5009507;28;20026;-77
2022/11/03 03:48:26;;;;;;;121.05;55.10;;;333.30;2329.60;;;;;;4993646;28;20063;-77
2022/11/03 03:50:52;;;;;;;109.95;51.95;;;333.30;2329.60;;;;;;5009397;28;20180;-78
2022/11/03 03:53:18;;;;;;;112.55;53.80;;;333.30;2329.60;;;;;;5006555;28;20038;-78
2022/11/03 03:55:49;;;;;;;119.45;53.40;;;333.30;2329.60;;;;;;5009440;28;20068;-78
2022/11/03 03:58:15;;;;;;;121.78;53.63;;;333.20;2329.60;;;;;;5055675;28;20036;-78
2022/11/03 04:00:42;;;;;;;120.05;54.03;;;333.20;2329.60;;;;;;5052998;28;20025;-78
2022/11/03 04:03:23;;;;;;;117.72;55.33;;;333.00;2329.60;;;;;;5053309;28;20055;-78
2022/11/03 04:05:49;;;;;;;124.45;56.15;;;333.20;2329.60;;;;;;5052236;28;20016;-78
2022/11/03 04:08:16;;;;;;;122.35;55.00;;;333.20;2329.60;;;;;;5071033;28;20025;-77
2022/11/03 04:22:15;;;;;;;126.70;57.50;;;333.30;2329.60;;;;;;5053099;28;20020;-77
2022/11/03 04:24:25;;;;;;;147.27;56.50;;;333.20;2329.60;;;;;;5069006;28;20028;-78
2022/11/03 04:26:51;;;;;;;140.98;59.85;;;333.20;2329.60;;;;;;5071019;28;20021;-78
2022/11/03 04:29:17;;;;;;;132.68;55.13;;;333.20;2329.60;;;;;;5071137;28;20168;-77
2022/11/03 04:31:43;;;;;;;133.15;55.88;;;333.30;2329.60;;;;;;5053018;28;20518;-78
2022/11/03 04:34:12;;;;;;;146.93;55.85;;;333.30;2329.60;;;;;;5053311;28;20039;-78
2022/11/03 04:36:38;;;;;;;134.23;58.38;;;333.30;2329.60;;;;;;5052757;28;20521;-77
2022/11/03 04:39:23;;;;;;;158.48;60.30;;;333.30;2329.60;;;;;;5070682;28;20035;-78
2022/11/03 04:41:48;;;;;;;148.88;60.30;;;333.30;2329.60;;;;;;5079551;28;20040;-77
2022/11/03 04:44:15;;;;;;;151.23;56.97;;;333.30;2329.60;;;;;;5093323;28;20051;-78
2022/11/03 04:46:42;;;;;;;149.25;60.15;;;333.30;2329.60;;;;;;5095095;28;20107;-77
2022/11/03 04:49:15;;;;;;;141.88;59.42;;;333.30;2329.60;;;;;;5093725;28;20016;-77
2022/11/03 04:51:41;;;;;;;152.10;59.95;;;333.30;2329.60;;;;;;5093460;28;20070;-78
2022/11/03 04:54:18;;;;;;;151.82;59.22;;;333.30;2329.60;;;;;;5094986;28;20085;-78
2022/11/03 04:56:43;;;;;;;;;;;333.20;2329.60;;;;;;5104564;28;20126;-77
2022/11/03 04:59:14;;;;;;;152.50;55.47;;;333.20;2329.60;;;;;;5093671;28;19951;-78
2022/11/03 05:01:40;;;;;;;139.82;55.10;;;333.20;2329.60;;;;;;5094773;28;20020;-78
2022/11/03 05:04:14;;;;;;;153.43;57.65;;;333.20;2329.60;;;;;;5093726;28;20051;-77
2022/11/03 05:06:41;;;;;;;148.20;57.70;;;333.30;2329.60;;;;;;5093430;28;20174;-77
2022/11/03 05:09:21;;;;;;;132.05;54.35;;;333.20;2329.60;;;;;;5094454;28;20009;-78
2022/11/03 05:11:47;;;;;;;143.32;54.55;;;333.10;2329.60;;;;;;5093453;28;20016;-77
2022/11/03 05:14:20;;;;;;;142.82;57.53;;;333.00;2329.60;;;;;;5093105;28;20055;-78
2022/11/03 05:16:47;;;;;;;152.00;53.97;;;333.10;2329.60;;;;;;5091171;28;20016;-78
2022/11/03 05:19:34;;;;;;;141.73;53.40;;;333.00;2329.60;;;;;;5094785;28;20141;-77
2022/11/03 05:22:02;;;;;;;145.70;53.67;;;333.00;2329.60;;;;;;5087493;28;20032;-78
2022/11/03 05:24:29;;;;;;;149.13;55.85;;;332.90;2329.60;;;;;;5094547;28;20095;-77
2022/11/03 05:26:57;;;;;;;132.98;53.75;;;332.90;2329.60;;;;;;5093092;28;20519;-78
2022/11/03 05:29:35;;;;;;;133.35;52.90;;;332.90;2329.60;;;;;;5094388;28;20099;-78
2022/11/03 05:32:01;;;;;;;148.48;55.63;;;332.90;2329.60;;;;;;5094216;28;20508;-77
2022/11/03 05:34:45;;;;;;;150.23;55.03;;;332.90;2329.60;;;;;;5092862;28;20035;-78
2022/11/03 05:37:11;;;;;;;146.23;56.28;;;332.90;2329.60;;;;;;5090792;28;20027;-77
2022/11/03 05:39:42;;;;;;;137.13;55.22;;;332.90;2329.60;;;;;;5092740;28;20486;-77
2022/11/03 05:42:34;;;;;;;147.23;56.10;;;332.80;2329.60;;;;;;5104146;28;20036;-77
2022/11/03 05:45:03;;;;;;;159.30;57.03;;;332.80;2329.60;;;;;;5094149;28;20016;-78
2022/11/03 05:47:36;;;;;;;159.45;59.88;;;332.80;2329.60;;;;;;5089718;28;20032;-78
2022/11/03 05:50:24;;;;;;;159.68;55.28;;;332.80;2329.60;;;;;;5092750;28;20123;-77
2022/11/03 05:53:17;;;;;;;143.52;54.90;;;308.10;2304.00;;;;;;5091168;28;20542;-78
2022/11/03 05:55:43;;;;;;;165.60;57.25;;;308.00;2304.00;;;;;;5091497;28;20040;-77
2022/11/03 05:58:21;;;;;;;160.43;59.08;;;308.00;2304.00;;;;;;5090832;28;20484;-77
2022/11/03 06:00:47;;;;;;;165.75;58.33;;;308.00;2304.00;;;;;;5092469;28;20108;-78
2022/11/03 06:03:18;;;;;;;165.40;57.72;;;308.00;2304.00;;;;;;5092176;28;20098;-78
2022/11/03 06:05:45;;;;;;;172.38;61.20;;;308.00;2304.00;;;;;;5092121;28;20450;-77
2022/11/03 06:08:24;;;;;;;154.13;57.88;;;308.00;2304.00;;;;;;5092187;28;20111;-77
2022/11/03 06:10:55;;;;;;;157.93;57.45;;;308.00;2304.00;;;;;;5092488;28;20031;-78
2022/11/03 06:13:25;;;;;;;165.27;57.55;;;308.10;2304.00;;;;;;5092533;28;20083;-78
2022/11/03 06:16:05;;;;;;;151.30;56.08;;;308.10;2304.00;;;;;;5087481;28;20082;-78
2022/11/03 06:18:37;;;;;;;167.48;59.20;;;308.10;2304.00;;;;;;5089658;28;20024;-78
2022/11/03 06:21:15;;;;;;;187.57;59.90;;;308.10;2304.00;;;;;;5092390;28;20023;-78
2022/11/03 06:23:41;;;;;;;182.48;60.67;;;308.10;2304.00;;;;;;5093228;28;20039;-78
2022/11/03 06:26:27;;;;;;;190.50;61.97;;;332.80;2329.60;;;;;;5092407;28;20024;-79
2022/11/03 06:28:54;;;;;;;191.52;62.45;;;332.80;2329.60;;;;;;5093666;28;20020;-79
2022/11/03 06:31:26;;;;;;;185.13;63.00;;;308.10;2304.00;;;;;;5093246;28;20490;-80
2022/11/03 06:33:52;;;;;;;195.90;63.50;;;332.80;2329.60;;;;;;5092548;28;20032;-81
2022/11/03 06:36:20;;;;;;;196.48;62.88;;;308.10;2304.00;;;;;;5091774;28;20031;-78
2022/11/03 06:38:59;;;;;;;200.57;66.15;;;332.80;2329.60;;;;;;5091525;28;20032;-76
2022/11/03 06:41:28;;;;;;;211.70;64.72;;;332.90;2329.60;;;;;;5085634;28;20045;-79
2022/11/03 06:43:54;;;;;;;208.35;64.15;;;332.90;2329.60;;;;;;5093910;28;20095;-80
2022/11/03 06:46:25;;;;;;;211.73;65.50;;;332.90;2329.60;;;;;;5092700;28;20016;-78
2022/11/03 06:48:59;;;;;;;219.15;64.57;;;332.90;2329.60;;;;;;5093357;28;20028;-77
2022/11/03 06:51:29;;;;;;;203.30;65.47;;;332.80;2329.60;;;;;;5092579;28;20117;-79
2022/11/03 06:53:58;;;;;;;219.15;67.78;;;332.80;2329.60;;;;;;5091827;28;20036;-79
2022/11/03 06:56:27;;;;;;;193.77;66.30;;;332.90;2329.60;;;;;;5091471;28;20035;-79
2022/11/03 06:58:55;;;;;;;189.38;63.20;;;333.00;2329.60;;;;;;5092099;28;20024;-80
2022/11/03 07:01:28;;;;;;;195.93;63.85;;;333.00;2329.60;;;;;;5091660;28;20016;-80
2022/11/03 07:04:01;;;;;;;222.77;66.47;;;333.00;2329.60;;;;;;5090811;28;20028;-79
2022/11/03 07:06:35;;;;;;;204.23;65.38;;;333.00;2329.60;;;;;;5077076;28;20048;-78
2022/11/03 07:09:04;;;;;;;195.02;65.40;;;333.00;2329.60;;;;;;5090862;28;20111;-79
2022/11/03 07:11:34;;;;;;;195.00;64.78;;;333.10;2329.60;;;;;;5091310;28;20393;-77
2022/11/03 07:14:19;;;;;;;185.57;62.13;;;333.20;2329.60;;;;;;5091637;28;20036;-77
2022/11/03 07:16:52;;;;;;;201.15;68.75;;;333.20;2329.60;;;;;;5080048;28;20108;-76
2022/11/03 07:19:20;;;;;;;194.93;66.88;;;333.20;2329.60;;;;;;5090313;28;20500;-78
2022/11/03 07:21:50;;;;;;;197.25;64.20;;;333.30;2329.60;;;;;;5092827;28;20027;-79
2022/11/03 07:24:32;;;;;;;193.93;67.90;;;333.20;2329.60;;;;;;5092997;28;20074;-79
2022/11/03 07:27:19;;;;;;;177.60;65.13;;;333.30;2329.60;;;;;;5079129;28;20024;-76
2022/11/03 07:29:44;;;;;;;;;;;333.30;2329.60;;;;;;5091137;28;20024;-77
2022/11/03 07:32:17;;;;;;;173.60;57.23;;;333.30;2329.60;;;;;;5092005;28;19919;-79
2022/11/03 07:34:44;;;;;;;177.63;59.97;;;333.30;2329.60;;;;;;5091798;28;20040;-81
2022/11/03 07:37:25;;;;;;;183.40;61.20;;;333.30;2329.60;;;;;;5091101;28;20020;-80
2022/11/03 07:39:51;;;;;;;192.60;61.50;;;333.30;2329.60;;;;;;5092022;28;20032;-82
2022/11/03 07:42:20;;;;;;;182.10;63.38;;;333.20;2329.60;;;;;;5090529;28;20040;-82
2022/11/03 07:44:49;;;;;;;190.90;64.78;;;333.20;2329.60;;;;;;5087849;28;20051;-86
2022/11/03 07:47:26;;;;;;;198.57;64.93;;;333.10;2329.60;;;;;;5090758;28;20016;-78
2022/11/03 07:49:54;;;;;;;181.13;63.42;;;333.10;2329.60;;;;;;5090842;28;20501;-79
2022/11/03 07:52:22;;;;;;;190.63;63.72;;;333.10;2329.60;;;;;;5091188;28;20032;-78
2022/11/03 07:54:51;;;;;;;180.02;59.58;;;333.20;2329.60;;;;;;5092553;28;20107;-79
2022/11/03 07:57:31;;;;;;;185.98;63.13;;;333.20;2329.60;;;;;;5092356;28;20026;-79
2022/11/03 08:00:03;;;;;;;173.10;62.75;;;333.30;2329.60;;;;;;5091319;28;20055;-79
2022/11/03 08:02:54;;;;;;;189.65;61.75;;;333.30;2329.60;;;;;;5095961;28;20035;-79
2022/11/03 08:05:21;;;;;;;190.40;63.60;;;333.40;2329.60;;;;;;5092243;28;20027;-79
2022/11/03 08:07:46;;;;;;;171.68;60.50;;;333.50;2329.60;;;;;;5091440;28;20462;-79
2022/11/03 08:10:12;;;;;;;180.82;62.35;;;333.50;2329.60;;;;;;5090633;28;20040;-80
2022/11/03 08:12:38;;;;;;;178.95;63.05;;;333.60;2329.60;;;;;;5091055;28;20078;-77
2022/11/03 08:15:04;;;;;;;174.93;63.25;;;333.60;2329.60;;;;;;5092148;28;20032;-79
2022/11/03 08:17:30;;;;;;;176.52;61.08;;;333.60;2329.60;;;;;;5092397;28;20020;-78
2022/11/03 08:19:56;;;;;;;169.82;60.65;;;333.60;2329.60;;;;;;5111992;28;20024;-79
2022/11/03 08:22:24;;;;;;;179.10;64.57;;;333.70;2329.60;;;;;;5096249;28;20545;-78
2022/11/03 08:24:50;;;;;;;171.60;61.58;;;333.70;2329.60;;;;;;5094798;28;20028;-77
2022/11/03 08:27:16;;;;;;;157.55;61.63;;;358.40;2329.60;;;;;;5095076;28;20028;-76
2022/11/03 08:29:42;;;;;;;156.95;60.78;;;358.50;2329.60;;;;;;5079854;28;20112;-85
2022/11/03 08:32:07;;;;;;;175.57;65.65;;;358.60;2329.60;;;;;;5095081;28;20205;-79
2022/11/03 08:34:33;;;;;;;171.73;64.93;;;358.60;2329.60;;;;;;5096689;28;20024;-79
2022/11/03 08:36:59;;;;;;;152.20;61.40;;;358.60;2329.60;;;;;;5093709;28;20056;-78
2022/11/03 08:39:24;;;;;;;155.15;60.35;;;358.60;2329.60;;;;;;5095039;28;20039;-77
2022/11/03 08:41:50;;;;;;;153.02;58.45;;;358.60;2227.20;;;;;;5090014;28;20481;-78
2022/11/03 08:44:16;;;;;;;149.63;62.20;;;358.60;2278.40;;;;;;5086223;28;20111;-77
2022/11/03 08:46:41;;;;;;;155.50;62.65;;;358.70;2329.60;;;;;;5093233;28;20019;-75
2022/11/03 08:49:07;;;;;;;141.23;58.83;;;358.70;2329.60;;;;;;5074632;28;20032;-80
2022/11/03 08:51:33;;;;;;;146.43;60.60;;;358.70;2227.20;;;;;;5088991;28;20060;-76
2022/11/03 08:53:58;;;;;;;133.80;53.63;;;358.70;2329.60;;;;;;5095026;28;20052;-84
2022/11/03 08:56:24;;;;;;;115.68;49.28;;;358.70;2329.60;;;;;;5095191;28;20024;-83
2022/11/03 08:58:50;;;;;;;128.23;53.38;;;358.70;2329.60;;;;;;5111632;28;20069;-81
2022/11/03 09:01:16;;;;;;;106.00;47.60;;;358.80;2329.60;;;;;;5095507;28;20023;-82
2022/11/03 09:03:41;;;;;;;115.50;53.03;;;358.80;2329.60;;;;;;5092603;28;20020;-86
2022/11/03 09:06:07;;;;;;;116.90;49.67;;;358.80;2329.60;;;;;;5080138;28;20020;-81
2022/11/03 09:08:33;;;;;;;113.55;49.38;;;358.80;2329.60;;;;;;5094884;28;20031;-83
2022/11/03 09:10:59;;;;;;;120.10;50.60;;;358.80;2329.60;;;;;;5088885;28;20432;-82
2022/11/03 09:13:25;;;;;;;124.30;50.75;;;358.80;2329.60;;;;;;5093966;28;20464;-84
2022/11/03 09:15:50;;;;;;;110.22;46.75;;;358.80;2329.60;;;;;;5094064;28;20078;-82
2022/11/03 09:18:16;;;;;;;117.70;50.63;;;358.90;2329.60;;;;;;5093645;28;20028;-85
2022/11/03 09:20:42;;;;;;;123.50;52.33;;;358.90;2329.60;;;;;;5094558;28;20031;-79
2022/11/03 09:23:08;;;;;;;120.00;51.60;;;358.90;2329.60;;;;;;5095722;28;20024;-80
2022/11/03 09:25:33;;;;;;;128.13;49.95;;;358.80;2329.60;;;;;;5094632;28;20018;-83
2022/11/03 09:27:59;;;;;;;113.72;46.90;;;358.80;2329.60;;;;;;5105479;28;20032;-80
2022/11/03 09:30:25;;;;;;;102.90;46.75;;;358.80;2329.60;;;;;;5093241;28;20016;-79
2022/11/03 09:32:50;;;;;;;95.45;46.80;;;358.90;2329.60;;;;;;5093135;28;20474;-81
2022/11/03 09:35:16;;;;;;;108.63;48.85;;;358.90;2329.60;;;;;;5093922;28;20031;-81
2022/11/03 09:37:43;;;;;;;106.25;45.70;;;358.90;2329.60;;;;;;5091034;28;20020;-80
2022/11/03 09:40:12;;;;;;;101.25;46.05;;;359.00;2329.60;;;;;;5092360;28;20028;-79
2022/11/03 09:42:38;;;;;;;106.80;47.33;;;359.00;2329.60;;;;;;5054170;28;20040;-80
2022/11/03 09:45:06;;;;;;;105.15;44.97;;;359.00;2329.60;;;;;;5074259;28;20021;-80
2022/11/03 09:47:34;;;;;;;96.25;42.75;;;359.00;2329.60;;;;;;5056797;28;20154;-78
2022/11/03 09:50:01;;;;;;;92.32;42.50;;;358.90;2329.60;;;;;;5056677;28;20094;-79
2022/11/03 09:52:27;;;;;;;95.18;43.13;;;358.80;2329.60;;;;;;5055731;28;20107;-77
2022/11/03 09:54:58;;;;;;;92.35;41.70;;;358.80;2329.60;;;;;;5056667;28;20036;-79
2022/11/03 09:57:26;;;;;;;100.75;41.80;;;358.80;2329.60;;;;;;5074421;28;20108;-80
2022/11/03 09:59:52;;;;;;;91.63;41.33;;;358.80;2329.60;;;;;;5056715;28;20099;-80
2022/11/03 10:02:26;;;;;;;111.28;53.50;;;359.00;2329.60;;;;;;5056409;28;20118;-81
2022/11/03 10:04:54;;;;;;;170.43;103.40;;;359.00;2329.60;;;;;;5056014;28;20037;-78
2022/11/03 10:07:21;;;;;;;184.73;111.32;;;358.90;2329.60;;;;;;5056338;28;20080;-80
2022/11/03 10:09:50;;;;;;;133.38;65.43;;;358.90;2329.60;;;;;;5055699;28;20074;-80
2022/11/03 10:12:16;;;;;;;88.55;42.15;;;358.80;2329.60;;;;;;5042108;28;20116;-80
2022/11/03 10:14:45;;;;;;;86.97;44.00;;;358.80;2329.60;;;;;;5056556;28;20033;-79
2022/11/03 10:17:19;;;;;;;86.65;43.00;;;358.70;2329.60;;;;;;5056621;28;20109;-80
2022/11/03 10:19:54;;;;;;;85.90;40.33;;;358.80;2329.60;;;;;;5074348;28;20151;-80
2022/11/03 10:22:20;;;;;;;90.07;44.35;;;358.80;2329.60;;;;;;5055835;28;20078;-79
2022/11/03 10:24:46;;;;;;;88.72;44.40;;;358.80;2329.60;;;;;;5056559;28;20059;-80
2022/11/03 10:27:27;;;;;;;84.63;42.22;;;358.90;2329.60;;;;;;5055016;28;20028;-80
2022/11/03 10:30:11;;;;;;;123.85;64.30;;;358.80;2329.60;;;;;;5055890;28;20412;-80
2022/11/03 10:32:37;;;;;;;114.15;54.42;;;358.80;2329.60;;;;;;5055773;28;20024;-80
2022/11/03 10:35:33;;;;;;;123.43;61.78;;;358.80;2329.60;;;;;;5040476;28;20025;-81
2022/11/03 10:38:37;;;;;;;196.23;103.20;;;358.80;2329.60;;;;;;5063766;28;20028;-81
2022/11/03 10:41:16;;;;;;;160.38;89.10;;;358.80;2329.60;;;;;;4980931;28;20095;-80
2022/11/03 10:44:01;;;;;;;158.13;81.68;;;358.80;2329.60;;;;;;4997090;28;20037;-78
2022/11/03 10:46:27;;;;;;;123.25;62.97;;;358.90;2329.60;;;;;;5032281;28;20037;-83
2022/11/03 10:49:13;;;;;;;107.53;53.92;;;359.00;2329.60;;;;;;5012812;28;20029;-81
2022/11/03 10:51:41;;;;;;;104.07;51.55;;;359.00;2329.60;;;;;;5006273;28;20034;-82
2022/11/03 10:54:13;;;;;;;107.65;53.03;;;359.00;2329.60;;;;;;5008423;28;20045;-82
2022/11/03 10:56:40;;;;;;;96.95;50.05;;;359.00;2329.60;;;;;;4986670;28;20080;-82
2022/11/03 10:59:15;;;;;;;82.88;43.15;;;359.00;2329.60;;;;;;4995073;28;20037;-81
2022/11/03 11:01:41;;;;;;;67.20;34.92;;;359.00;2329.60;;;;;;4995861;28;20029;-80
2022/11/03 11:04:07;;;;;;;60.00;31.52;;;359.00;2329.60;;;;;;5007928;28;20026;-83
2022/11/03 11:06:33;;;;;;;56.97;28.42;;;359.10;2329.60;;;;;;4983937;28;20519;-83
2022/11/03 11:09:04;;;;;;;66.53;30.65;;;359.10;2329.60;;;;;;5009152;28;20025;-80
2022/11/03 11:11:30;;;;;;;61.55;28.73;;;359.10;2329.60;;;;;;5025985;28;20050;-78
2022/11/03 11:14:24;;;;;;;54.38;27.85;;;359.10;2329.60;;;;;;5074657;28;20093;-83
2022/11/03 11:16:53;;;;;;;56.55;28.17;;;359.10;2329.60;;;;;;5080216;28;20366;-80
2022/11/03 11:19:21;;;;;;;59.83;26.45;;;359.20;2329.60;;;;;;5073728;28;20040;-80
2022/11/03 11:21:48;;;;;;;54.97;25.95;;;359.10;2329.60;;;;;;5074549;28;20028;-81
2022/11/03 11:24:42;;;;;;;52.95;27.33;;;359.20;2329.60;;;;;;5074713;28;20024;-80
2022/11/03 11:27:30;;;;;;;52.67;27.20;;;359.20;2329.60;;;;;;5071764;28;20028;-81
2022/11/03 11:30:00;;;;;;;51.03;25.00;;;359.30;2329.60;;;;;;5065270;28;20027;-78
2022/11/03 11:32:38;;;;;;;43.85;24.85;;;384.00;2329.60;;;;;;5064177;28;20453;-81
2022/11/03 11:35:30;;;;;;;46.25;25.38;;;384.00;2329.60;;;;;;5089796;28;20115;-81
2022/11/03 11:38:34;;;;;;;50.08;25.80;;;384.00;2329.60;;;;;;5051921;28;20028;-82
2022/11/03 11:41:00;;;;;;;43.75;24.33;;;384.10;2329.60;;;;;;5074581;28;20035;-80
2022/11/03 11:43:27;;;;;;;53.10;25.92;;;384.00;2329.60;;;;;;5074077;28;20034;-81
2022/11/03 11:46:35;;;;;;;55.65;26.48;;;384.00;2329.60;;;;;;5074285;28;20123;-80
2022/11/03 11:49:14;;;;;;;47.60;24.73;;;384.00;2329.60;;;;;;5072940;28;20032;-80
2022/11/03 11:51:40;;;;;;;47.60;24.05;;;384.00;2329.60;;;;;;5073761;28;20028;-80
2022/11/03 11:54:10;;;;;;;44.88;24.00;;;384.10;2329.60;;;;;;5074275;28;20048;-80
2022/11/03 11:56:42;;;;;;;48.15;24.85;;;384.10;2329.60;;;;;;5092331;28;20024;-80
2022/11/03 11:59:17;;;;;;;51.90;26.00;;;384.20;2329.60;;;;;;5065547;28;20024;-80
2022/11/03 12:01:43;;;;;;;43.08;24.02;;;384.30;2329.60;;;;;;5070805;28;20024;-79
2022/11/03 12:04:29;;;;;;;37.75;24.00;;;384.40;2329.60;;;;;;5071628;28;20032;-80
2022/11/03 12:06:56;;;;;;;37.85;20.48;;;384.50;2329.60;;;;;;5090559;28;20378;-81
2022/11/03 12:09:26;;;;;;;45.10;21.98;;;384.40;2329.60;;;;;;5073954;28;20016;-79
2022/11/03 12:12:00;;;;;;;47.50;22.30;;;384.30;2329.60;;;;;;5074007;28;20073;-79
2022/11/03 12:14:36;;;;;;;39.10;21.10;;;384.30;2329.60;;;;;;5073293;28;20036;-79
2022/11/03 12:17:17;;;;;;;41.47;22.42;;;384.20;2329.60;;;;;;5073956;28;20016;-79
2022/11/03 12:19:53;;;;;;;37.35;19.35;;;384.40;2329.60;;;;;;5092259;28;20489;-79
2022/11/03 12:22:25;;;;;;;37.45;19.55;;;384.60;2329.60;;;;;;5073669;28;20020;-79
2022/11/03 12:24:54;;;;;;;54.95;21.60;;;384.70;2329.60;;;;;;5073975;28;20366;-81
2022/11/03 12:27:23;;;;;;;38.35;20.23;;;384.60;2329.60;;;;;;5074321;28;20027;-80
2022/11/03 12:29:52;;;;;;;34.05;18.95;;;384.70;2329.60;;;;;;5074048;28;20111;-80